Ride Results

Southern Crosse (07-06-2009)
Ride distance: 120.0 km Elevator

Outcomes - Southern Crosse (07-06-2009)
Division No. of Entries Retired / DNE Completed Withdrawn Ineligible V/O Percentage Completed
HW 10 6 2 - - 2 80.00%
MW 20 12 4 2 - 2 80.00%
LW 8 4 2 1 - 1 75.00%
JN 4 3 1 - - - 100.00%
Totals 42 25 9 3 - 5 80.95%
Results - Southern Crosse (07-06-2009)
No. Rider Horse Place Time Leg Speeds Total
Km/Hr
H/R bpm
Heavyweight
82 Jarrod Robinson Julian 1 (BC) 8:24:00 15.8, 14.9, 12.4 14.29 36, 42, 52, 59 (Avg:51)
18 Ken Bradley Phoenix Park Epona 2 12:34:00 14.4, 14.9, 5.6 9.55 32, 42, 52, 51 (Avg:48)
741 Max Oakley Poesie de Ibn Shahn Retired/DNE L2 6:25:00 12.4, 12.4 12.47 31, 39, 46 (Avg:42)
750 Bruce Harper Hartz Evandah Retired/DNE L2 6:26:00 12.4, 12.4 12.44 36, 44, 53 (Avg:48)
143 Fred Muller Jaharra Park Nureyev Retired/DNE L2 6:51:00 14.2, 9.8 11.68 34, 41, 57 (Avg:49)
753 Ian Tytler Whyneemah Abu Retired/DNE L2 7:32:00 11.6, 9.7 10.62 37, 42, 52 (Avg:47)
26 Katrina Westerhoff Avondale Marconi Retired/DNE L2 7:42:00 10.5, 10.2 10.39 40, 43, 48 (Avg:45)
754 Geoffrey Woods Whyneemah Ezra Retired/DNE L2 7:57:00 11.2, 9.0 10.06 38, 42, 46 (Avg:44)
185 Andrew McNicol Musical Gully Instrument Lame L3 0:00:00 14.4, 14.9, 12.0 - 37, 44, 45, 58 (Avg:49)
141 Lorraine Cubbin Clovelly Park Shandara Lame L2 0:00:00 14.2, 9.8 - 28, 40, 43 (Avg:41)
Middleweight
42 Hans Peuker Marybank Celia 1 (BC) 8:18:00 15.8, 14.9, 12.8 14.46 30, 38, 47, 48 (Avg:44)
142 Jan Scholes Gayland Mariah 2 8:24:00 14.2, 15.0, 13.5 14.29 26, 36, 44, 45 (Avg:41)
175 Dianne Leehane Shah 3 8:51:00 15.7, 14.2, 11.3 13.56 28, 42, 40, 45 (Avg:42)
69 Sue Cavill Koonwarra Kavalier 4 11:01:00 13.7, 11.7, 8.5 10.89 29, 41, 46, 48 (Avg:45)
56 Wendy Bootle Blue Bopp Retired/DNE L2 6:20:00 13.7, 11.7 12.63 32, 46, 50 (Avg:48)
740 Trish Reeves Bounda Retired/DNE L2 6:26:00 13.0, 11.8 12.44 24, 48, 45 (Avg:46)
133 Barry Sinclair Chipawood Tashi Retired/DNE L2 6:26:00 13.1, 11.8 12.44 33, 36, 43 (Avg:39)
89 Sheryl Herbert Krishlah Maleeka Retired/DNE L2 6:31:00 13.1, 11.5 12.28 31, 47, 53 (Avg:50)
49 Jessica Remfry Just Shakira Retired/DNE L2 6:31:00 13.1, 11.5 12.28 34, 41, 50 (Avg:45)
78 Jennifer Pitman Meg Retired/DNE L2 7:03:00 13.1, 9.9 11.35 33, 41, 48 (Avg:44)
742 Steve Blackhurst Rowallan Nara Retired/DNE L2 7:09:00 10.8, 11.5 11.19 31, 44, 44 (Avg:44)
751 Elodie LeLabourier Magic Glenn Harpoon Retired/DNE L2 7:09:00 11.1, 11.2 11.19 34, 40, 41 (Avg:40)
13 Linda Tanian Castlebar Hot Potato Retired/DNE L2 7:09:00 11.1, 11.2 11.19 28, 32, 34 (Avg:33)
84 Kristie Taprell Magic Glenn Voyager Retired/DNE L2 7:09:00 11.1, 11.2 11.19 34, 40, 45 (Avg:42)
67 John Osboldstone Jackie Retired/DNE L2 7:21:00 9.8, 12.1 10.88 42, 49, 55 (Avg:52)
166 Christine Schepisi Musical Gully Carousel Retired/DNE L2 9:02:00 9.1, 8.6 8.86 41, 41, 45 (Avg:43)
759 Kim Fitzpatrick Cieanna Heart Rate L3 0:00:00 13.5, 13.5, 13.1 - 36, 46, 50, 70 (Avg:55)
107 Jo Brock Im Not Shy (Lady) Withdrawn L1 0:00:00 - - 27, 39 (Avg:39)
181 Sharee Court Cromarty Park Simply The Best Lame L1 0:00:00 10.9 - 40, 50 (Avg:50)
44 Vanessa Smith Dunbraeton Narla Withdrawn L1 0:00:00 - - 28, 34 (Avg:34)
Lightweight
183 Nicky Robinson Sterling Nakeeta 1 (BC) 8:51:00 15.7, 14.2, 11.3 13.56 40, 42, 45, 50 (Avg:45)
91 Kim Noble Mytkyina 2 12:03:00 13.1, 9.7, 8.1 9.96 36, 37, 52, 54 (Avg:47)
103 Jess Welsh Sandine Excellerator Retired/DNE L2 6:14:00 12.6, 13.0 12.83 34, 44, 49 (Avg:46)
73 Rachael Saunders Big Charles Retired/DNE L2 6:20:00 13.0, 12.2 12.63 37, 42, 47 (Avg:44)
61 Lois Sharam Musical Gully Zanadu Retired/DNE L2 6:21:00 13.0, 12.1 12.60 38, 49, 55 (Avg:52)
144 Marie Gillett Radiums Rusty Retired/DNE L2 7:42:00 10.5, 10.2 10.39 40, 43, 42 (Avg:42)
752 Tegan Gillingham Miss Freckles Heart Rate L2 0:00:00 12.6, 10.0 - 38, 50, 69 (Avg:59)
17 Sallyann Duke Musk Valley Rememberance Withdrawn L1 0:00:00 - - 38, 44 (Avg:44)
Junior
90 Samantha Noble Springridge Bungendore 1 (BC) 12:03:00 13.1, 9.7, 8.1 9.96 30, 39, 32, 39 (Avg:36)
102 Jesse McKinnon Pyrenees Sapphire Retired/DNE L2 6:14:00 12.6, 13.0 12.83 32, 42, 46 (Avg:44)
748 Stevie-lyn Oborne Zhara Retired/DNE L2 7:38:00 11.4, 9.6 10.48 34, 42, 51 (Avg:46)
86 Ruby Blake Ennerdale Oscar Retired/DNE L2 8:38:00 8.8, 9.6 9.27 40, 39, 45 (Avg:42)